Time;durP1;ratioP1;P1;durP2;ratioP2;P2;SDS_P1;SDS_P2;PMS_P1;PMS_P2;Temp;Humidity;BMP_temperature;BMP_pressure;BME280_temperature;BME280_humidity;BME280_pressure;Samples;Min_cycle;Max_cycle;Signal;HPM_P1;HPM_P2
2022/01/23 00:02:21;;;;;;;0.82;0.20;;;13.90;53.20;;;;;;5129252;27;20463;-69
2022/01/23 00:04:50;;;;;;;2.05;0.20;;;13.80;53.20;;;;;;5129282;28;20047;-68
2022/01/23 00:07:16;;;;;;;1.10;0.30;;;14.00;53.30;;;;;;5129210;28;20399;-68
2022/01/23 00:09:42;;;;;;;0.77;0.47;;;13.80;53.20;;;;;;5128793;28;20081;-68
2022/01/23 00:12:14;;;;;;;1.20;0.40;;;13.80;53.20;;;;;;5129072;28;20043;-67
2022/01/23 00:17:33;;;;;;;1.95;0.30;;;13.80;53.20;;;;;;5128623;27;20047;-68
2022/01/23 00:20:00;;;;;;;1.45;0.20;;;13.80;53.20;;;;;;5129882;27;20045;-67
2022/01/23 00:22:37;;;;;;;1.05;0.30;;;13.80;53.20;;;;;;5128946;28;20046;-68
2022/01/23 00:30:36;;;;;;;1.10;0.40;;;13.80;53.20;;;;;;5128633;28;20043;-68
2022/01/23 00:33:04;;;;;;;2.40;0.40;;;13.80;53.20;;;;;;5128496;28;20075;-68
2022/01/23 00:35:32;;;;;;;1.33;0.30;;;13.80;53.20;;;;;;5129487;27;20035;-67
2022/01/23 00:37:58;;;;;;;1.92;0.30;;;13.80;53.20;;;;;;5128362;28;20062;-68
2022/01/23 00:40:26;;;;;;;1.25;0.30;;;13.80;53.20;;;;;;5128460;28;20043;-68
2022/01/23 00:42:54;;;;;;;1.67;0.28;;;13.80;53.20;;;;;;5128234;28;20051;-68
2022/01/23 00:48:07;;;;;;;1.00;0.32;;;13.80;53.20;;;;;;5130221;27;20358;-67
2022/01/23 00:50:42;;;;;;;1.65;0.50;;;13.70;53.20;;;;;;5146194;27;20088;-68
2022/01/23 00:53:10;;;;;;;0.95;0.20;;;13.70;53.20;;;;;;5129198;28;20068;-67
2022/01/23 00:55:37;;;;;;;2.20;0.30;;;13.80;53.20;;;;;;5129105;28;20047;-68
2022/01/23 00:58:03;;;;;;;1.75;0.30;;;13.80;53.20;;;;;;5129134;28;20043;-68
2022/01/23 01:00:32;;;;;;;0.90;0.30;;;13.80;53.20;;;;;;5129992;28;20456;-68
2022/01/23 01:02:58;;;;;;;0.60;0.20;;;13.80;53.20;;;;;;5130023;27;20254;-68
2022/01/23 01:05:26;;;;;;;0.93;0.25;;;13.70;53.20;;;;;;5128781;28;20563;-68
2022/01/23 01:07:53;;;;;;;1.42;0.40;;;13.70;53.20;;;;;;5129815;27;20032;-68
2022/01/23 01:10:25;;;;;;;0.90;0.30;;;13.70;53.20;;;;;;5129923;28;20046;-68
2022/01/23 01:12:55;;;;;;;1.02;0.25;;;13.70;53.20;;;;;;5128426;28;20046;-68
2022/01/23 01:15:30;;;;;;;0.82;0.30;;;13.70;53.20;;;;;;5128461;28;20050;-67
2022/01/23 01:31:52;;;;;;;0.90;0.30;;;13.70;53.30;;;;;;5153132;27;20461;-67
2022/01/23 01:34:25;;;;;;;1.40;0.30;;;13.70;53.40;;;;;;5152988;27;20043;-67
2022/01/23 01:36:53;;;;;;;1.27;0.25;;;13.70;53.30;;;;;;5153530;27;20038;-67
2022/01/23 01:39:22;;;;;;;0.80;0.22;;;13.70;53.30;;;;;;5153320;27;20072;-67
2022/01/23 01:41:49;;;;;;;0.70;0.30;;;13.70;53.40;;;;;;5152761;27;20091;-67
2022/01/23 01:44:15;;;;;;;0.98;0.40;;;13.70;53.40;;;;;;5152791;27;20038;-68
2022/01/23 01:46:42;;;;;;;1.25;0.28;;;13.70;53.40;;;;;;5153134;27;20054;-69
2022/01/23 01:49:08;;;;;;;2.22;0.30;;;13.70;53.40;;;;;;5171262;27;20494;-68
2022/01/23 01:51:35;;;;;;;1.27;0.20;;;13.70;53.40;;;;;;5152750;27;20047;-67
2022/01/23 01:54:12;;;;;;;1.58;0.20;;;13.70;53.40;;;;;;5152923;27;20041;-67
2022/01/23 01:56:47;;;;;;;1.27;0.30;;;13.70;54.20;;;;;;5171388;27;20358;-67
2022/01/23 01:59:23;;;;;;;0.80;0.30;;;13.70;53.40;;;;;;5152481;27;20045;-67
2022/01/23 02:10:05;;;;;;;1.27;0.22;;;13.60;53.50;;;;;;5087834;28;20139;-67
2022/01/23 02:15:43;;;;;;;0.77;0.20;;;13.60;53.50;;;;;;5130265;27;20415;-68
2022/01/23 02:18:14;;;;;;;1.90;0.77;;;13.60;53.50;;;;;;5128769;28;20133;-67
2022/01/23 02:23:55;;;;;;;2.15;0.32;;;13.60;53.60;;;;;;5128638;28;20044;-67
2022/01/23 02:51:25;;;;;;;1.63;0.50;;;13.60;53.60;;;;;;5128102;28;20126;-67
2022/01/23 02:54:30;;;;;;;1.30;0.30;;;13.60;53.70;;;;;;5130026;27;20035;-68
2022/01/23 02:56:44;;;;;;;1.95;0.20;;;13.60;53.70;;;;;;5128165;28;20071;-68
2022/01/23 02:59:19;;;;;;;1.27;0.40;;;13.50;53.60;;;;;;5128518;28;20039;-67
2022/01/23 03:04:33;;;;;;;1.00;0.20;;;13.50;53.60;;;;;;5129139;28;20050;-67
2022/01/23 03:26:35;;;;;;;0.85;0.20;;;13.50;53.70;;;;;;5128718;28;20047;-68
2022/01/23 03:29:17;;;;;;;1.52;0.43;;;13.50;53.70;;;;;;5128861;28;20050;-67
2022/01/23 03:31:57;;;;;;;1.25;0.20;;;13.50;53.70;;;;;;5107982;28;20044;-67
2022/01/23 03:34:26;;;;;;;1.67;0.30;;;13.50;53.70;;;;;;5109487;28;20044;-67
2022/01/23 03:36:55;;;;;;;1.20;0.30;;;13.50;53.70;;;;;;5107994;28;20058;-67
2022/01/23 03:39:21;;;;;;;1.13;0.30;;;13.50;53.80;;;;;;5122780;28;20424;-67
2022/01/23 03:41:47;;;;;;;0.55;0.20;;;13.50;53.80;;;;;;5128798;28;20114;-67
2022/01/23 03:44:16;;;;;;;1.23;0.38;;;13.50;53.80;;;;;;5128579;28;20089;-67
2022/01/23 03:49:32;;;;;;;1.67;0.43;;;13.50;53.80;;;;;;5089422;28;20360;-67
2022/01/23 03:52:01;;;;;;;1.30;0.20;;;13.50;53.80;;;;;;5088076;28;20554;-67
2022/01/23 03:54:28;;;;;;;0.82;0.38;;;13.50;53.80;;;;;;5088183;28;20040;-67
2022/01/23 03:56:55;;;;;;;0.77;0.20;;;13.50;53.80;;;;;;5088243;28;20507;-67
2022/01/23 03:59:21;;;;;;;2.63;0.30;;;13.50;53.80;;;;;;5087935;28;20101;-67
2022/01/23 04:01:47;;;;;;;1.00;0.30;;;13.50;53.80;;;;;;5087933;28;20052;-67
2022/01/23 04:04:28;;;;;;;1.58;0.52;;;13.50;53.80;;;;;;5089186;28;20032;-68
2022/01/23 04:06:54;;;;;;;1.08;0.20;;;13.50;53.80;;;;;;5089149;28;20040;-67
2022/01/23 04:09:20;;;;;;;1.35;0.30;;;13.50;53.80;;;;;;5089126;28;20119;-67
2022/01/23 04:11:46;;;;;;;1.63;0.30;;;13.50;53.80;;;;;;5088954;28;20435;-67
2022/01/23 04:14:14;;;;;;;1.00;0.20;;;13.40;53.70;;;;;;5087977;28;20387;-68
2022/01/23 04:33:26;;;;;;;0.80;0.20;;;13.40;53.80;;;;;;5129960;28;20066;-68
2022/01/23 05:00:53;;;;;;;1.20;0.20;;;13.40;54.60;;;;;;5152842;27;20039;-67
2022/01/23 05:06:02;;;;;;;0.68;0.30;;;13.40;53.90;;;;;;5130324;27;20758;-68
2022/01/23 05:08:30;;;;;;;0.57;0.20;;;13.40;53.90;;;;;;5128846;28;20054;-68
2022/01/23 05:10:59;;;;;;;0.52;0.20;;;13.40;53.90;;;;;;5128924;28;20047;-67
2022/01/23 05:13:26;;;;;;;0.50;0.20;;;13.40;53.90;;;;;;5128885;28;20035;-68
2022/01/23 05:15:52;;;;;;;1.63;0.20;;;13.40;54.00;;;;;;5128721;28;20085;-67
2022/01/23 05:18:18;;;;;;;2.10;0.32;;;13.30;53.90;;;;;;5128989;28;20042;-67
2022/01/23 05:20:46;;;;;;;1.45;0.20;;;13.30;53.90;;;;;;5128665;28;20475;-67
2022/01/23 05:23:18;;;;;;;1.02;0.25;;;13.30;53.90;;;;;;5128944;28;20356;-67
2022/01/23 05:25:44;;;;;;;0.63;0.20;;;13.30;53.90;;;;;;5128466;28;20046;-67
2022/01/23 05:28:09;;;;;;;1.23;0.35;;;13.30;53.90;;;;;;5129449;27;20039;-67
2022/01/23 05:30:36;;;;;;;0.93;0.30;;;13.30;54.00;;;;;;5128893;28;20043;-67
2022/01/23 05:33:02;;;;;;;0.80;0.20;;;13.30;54.00;;;;;;5128982;28;20078;-67
2022/01/23 05:35:30;;;;;;;1.27;0.28;;;13.30;54.00;;;;;;5128746;28;20036;-67
2022/01/23 05:37:56;;;;;;;1.73;0.30;;;13.30;54.00;;;;;;5129623;27;20028;-68
2022/01/23 05:40:24;;;;;;;0.43;0.20;;;13.30;54.00;;;;;;5128357;28;20591;-67
2022/01/23 05:42:50;;;;;;;0.95;0.40;;;13.30;54.00;;;;;;5128646;28;20043;-67
2022/01/23 05:45:16;;;;;;;0.68;0.20;;;13.30;54.00;;;;;;5129435;27;20382;-68
2022/01/23 05:47:42;;;;;;;0.70;0.20;;;13.30;54.00;;;;;;5129568;28;20096;-68
2022/01/23 05:50:08;;;;;;;0.57;0.20;;;13.30;54.00;;;;;;5127728;28;20047;-67
2022/01/23 05:52:34;;;;;;;1.23;0.35;;;13.30;54.10;;;;;;5128379;28;20039;-67
2022/01/23 05:55:00;;;;;;;1.95;0.30;;;13.30;54.00;;;;;;5128047;28;20383;-67
2022/01/23 05:57:29;;;;;;;0.75;0.35;;;13.30;54.10;;;;;;5129537;28;20041;-67
2022/01/23 05:59:54;;;;;;;1.27;0.20;;;13.30;54.10;;;;;;5127966;28;20548;-67
2022/01/23 06:02:20;;;;;;;2.08;0.30;;;13.30;54.10;;;;;;5129228;28;20039;-67
2022/01/23 06:04:46;;;;;;;0.95;0.28;;;13.30;54.10;;;;;;5129009;27;20109;-67
2022/01/23 06:07:11;;;;;;;1.58;0.28;;;13.30;54.10;;;;;;5128315;28;20104;-67
2022/01/23 06:09:39;;;;;;;1.10;0.43;;;13.30;54.10;;;;;;5127989;28;20108;-68
2022/01/23 06:12:05;;;;;;;1.58;0.30;;;13.20;54.10;;;;;;5127994;28;20047;-67
2022/01/23 06:14:31;;;;;;;0.73;0.20;;;13.20;54.10;;;;;;5127940;28;20039;-67
2022/01/23 06:16:57;;;;;;;1.13;0.30;;;13.20;54.10;;;;;;5117219;28;20050;-68
2022/01/23 06:19:23;;;;;;;0.60;0.20;;;13.20;54.10;;;;;;5115324;28;20092;-67
2022/01/23 06:21:48;;;;;;;1.85;0.32;;;13.20;54.10;;;;;;5113872;28;20380;-67
2022/01/23 06:24:24;;;;;;;1.75;0.30;;;13.20;54.10;;;;;;5113854;28;20047;-68
2022/01/23 06:26:54;;;;;;;0.95;0.47;;;13.20;54.10;;;;;;5115097;27;20612;-67
2022/01/23 06:29:21;;;;;;;0.80;0.30;;;13.20;54.10;;;;;;5113894;28;20065;-67
2022/01/23 06:31:48;;;;;;;0.88;0.30;;;13.20;54.20;;;;;;5113944;28;20126;-67
2022/01/23 06:34:16;;;;;;;1.25;0.30;;;13.20;54.10;;;;;;5114047;28;20040;-68
2022/01/23 06:36:42;;;;;;;0.68;0.20;;;13.20;54.20;;;;;;5113900;28;20047;-67
2022/01/23 06:39:10;;;;;;;1.38;0.40;;;13.20;54.10;;;;;;5113960;28;20083;-68
2022/01/23 06:41:37;;;;;;;0.90;0.28;;;13.20;54.10;;;;;;5096519;28;20039;-67
2022/01/23 06:44:03;;;;;;;0.70;0.30;;;13.20;54.20;;;;;;5114903;28;20123;-67
2022/01/23 06:46:29;;;;;;;1.15;0.35;;;13.20;54.10;;;;;;5114824;28;20035;-67
2022/01/23 06:48:54;;;;;;;0.88;0.40;;;13.20;54.20;;;;;;5114607;27;20043;-67
2022/01/23 06:51:22;;;;;;;1.27;0.40;;;13.20;54.20;;;;;;5113633;28;20471;-67
2022/01/23 06:53:52;;;;;;;0.57;0.20;;;13.20;54.20;;;;;;5114608;28;20664;-68
2022/01/23 06:56:18;;;;;;;0.73;0.20;;;13.20;54.20;;;;;;5113594;28;20040;-67
2022/01/23 06:58:44;;;;;;;0.55;0.20;;;13.10;54.10;;;;;;5113129;28;20040;-68
2022/01/23 07:01:10;;;;;;;1.10;0.20;;;13.20;54.20;;;;;;5114595;28;20039;-67
2022/01/23 07:03:36;;;;;;;1.20;0.45;;;13.20;54.20;;;;;;5114056;28;20036;-67
2022/01/23 07:06:03;;;;;;;0.60;0.30;;;13.10;54.20;;;;;;5114182;28;20112;-68
2022/01/23 07:08:29;;;;;;;0.70;0.43;;;13.20;54.20;;;;;;5113188;28;20031;-68
2022/01/23 07:10:55;;;;;;;2.58;0.40;;;13.20;54.20;;;;;;5112978;28;20042;-67
2022/01/23 07:13:22;;;;;;;1.10;0.43;;;13.20;54.20;;;;;;5112912;28;20039;-67
2022/01/23 07:15:48;;;;;;;1.33;0.40;;;13.20;54.20;;;;;;5114137;27;20039;-67
2022/01/23 07:18:15;;;;;;;0.90;0.30;;;13.20;54.30;;;;;;5114080;28;20084;-67
2022/01/23 07:20:42;;;;;;;0.82;0.30;;;13.10;54.20;;;;;;5114572;27;20072;-67
2022/01/23 07:23:08;;;;;;;0.60;0.20;;;13.20;54.20;;;;;;5112918;28;20071;-68
2022/01/23 07:25:33;;;;;;;1.10;0.40;;;13.20;54.20;;;;;;5114303;28;20135;-68
2022/01/23 07:28:01;;;;;;;0.68;0.30;;;13.20;55.00;;;;;;5111855;28;20032;-68
2022/01/23 07:33:12;;;;;;;1.17;0.30;;;13.20;54.20;;;;;;5130225;27;20878;-67
2022/01/23 07:35:37;;;;;;;0.50;0.30;;;13.20;54.20;;;;;;5130094;27;20040;-68
2022/01/23 07:38:03;;;;;;;0.70;0.30;;;13.10;54.20;;;;;;5129014;28;20035;-67
2022/01/23 07:40:29;;;;;;;0.45;0.20;;;13.10;54.20;;;;;;5128860;28;20043;-68
2022/01/23 07:42:54;;;;;;;0.90;0.50;;;13.10;54.20;;;;;;5128409;28;20046;-67
2022/01/23 07:45:20;;;;;;;0.88;0.30;;;13.10;54.20;;;;;;5128709;28;20452;-67
2022/01/23 07:47:49;;;;;;;1.67;0.30;;;13.10;54.20;;;;;;5129007;28;20039;-67
2022/01/23 07:50:14;;;;;;;0.75;0.30;;;13.20;54.20;;;;;;5128829;28;20456;-68
2022/01/23 07:52:40;;;;;;;1.45;0.30;;;13.10;54.20;;;;;;5128659;28;20044;-68
2022/01/23 07:55:10;;;;;;;1.02;0.30;;;13.10;54.20;;;;;;5129868;28;20088;-67
2022/01/23 07:57:37;;;;;;;0.93;0.30;;;13.10;54.20;;;;;;5128521;27;20043;-67
2022/01/23 08:00:06;;;;;;;0.80;0.25;;;13.10;54.20;;;;;;5128418;28;20039;-67
2022/01/23 08:02:31;;;;;;;0.80;0.25;;;13.10;54.20;;;;;;5128494;28;20058;-67
2022/01/23 08:04:57;;;;;;;0.82;0.30;;;13.10;54.20;;;;;;5129963;28;20039;-67
2022/01/23 08:10:10;;;;;;;0.93;0.25;;;13.10;54.20;;;;;;5130298;27;20354;-67
2022/01/23 08:12:35;;;;;;;1.55;0.25;;;13.10;54.20;;;;;;5129234;28;20074;-67
2022/01/23 08:15:03;;;;;;;0.73;0.20;;;13.10;54.20;;;;;;5118702;28;20499;-68
2022/01/23 08:17:31;;;;;;;0.82;0.30;;;13.10;54.20;;;;;;5108658;28;20062;-68
2022/01/23 08:19:59;;;;;;;1.75;0.30;;;13.10;54.20;;;;;;5108298;28;20138;-67
2022/01/23 08:22:27;;;;;;;0.50;0.25;;;13.10;54.20;;;;;;5108603;28;20110;-67
2022/01/23 08:24:54;;;;;;;0.82;0.30;;;13.10;54.20;;;;;;5109528;28;20067;-68
2022/01/23 08:27:24;;;;;;;1.15;0.20;;;13.10;54.20;;;;;;5108720;28;20036;-67
2022/01/23 08:29:50;;;;;;;0.60;0.40;;;13.10;54.20;;;;;;5109367;28;20502;-67
2022/01/23 08:32:16;;;;;;;0.57;0.20;;;13.10;54.20;;;;;;5107965;28;20035;-68
2022/01/23 08:34:41;;;;;;;1.65;0.32;;;13.10;54.20;;;;;;5109511;28;20110;-67
2022/01/23 08:37:08;;;;;;;1.02;0.20;;;13.10;54.10;;;;;;5107989;28;20437;-68
2022/01/23 08:39:36;;;;;;;1.20;0.30;;;13.10;54.20;;;;;;5108221;28;20051;-67
2022/01/23 08:42:04;;;;;;;1.15;0.30;;;13.10;54.20;;;;;;5109260;28;20170;-67
2022/01/23 08:44:30;;;;;;;0.63;0.20;;;13.10;54.20;;;;;;5109218;28;20046;-68
2022/01/23 08:46:57;;;;;;;0.85;0.20;;;13.10;54.20;;;;;;5107691;28;20040;-68
2022/01/23 08:49:23;;;;;;;0.50;0.17;;;13.10;54.20;;;;;;5107756;28;20048;-68
2022/01/23 08:51:51;;;;;;;0.70;0.20;;;13.10;54.20;;;;;;5108972;28;20043;-67
2022/01/23 08:54:17;;;;;;;2.50;0.30;;;13.10;54.20;;;;;;5107940;28;20048;-67
2022/01/23 08:56:43;;;;;;;0.85;0.20;;;13.10;54.10;;;;;;5107884;28;20394;-68
2022/01/23 08:59:09;;;;;;;0.77;0.20;;;13.10;54.20;;;;;;5107562;28;20058;-68
2022/01/23 09:01:35;;;;;;;1.48;0.20;;;13.10;54.10;;;;;;5107424;28;20043;-68
2022/01/23 09:04:05;;;;;;;1.48;0.38;;;13.10;54.10;;;;;;5108767;28;20072;-67
2022/01/23 09:06:33;;;;;;;1.00;0.20;;;13.20;54.20;;;;;;5107746;28;20079;-68
2022/01/23 09:09:00;;;;;;;1.40;0.20;;;13.10;54.10;;;;;;5108507;28;20043;-68
2022/01/23 09:11:40;;;;;;;0.98;0.20;;;13.10;54.10;;;;;;5107523;28;20040;-68
2022/01/23 09:14:06;;;;;;;2.45;0.25;;;13.20;54.10;;;;;;5109757;28;20044;-68
2022/01/23 09:16:36;;;;;;;0.82;0.30;;;13.20;54.90;;;;;;5128988;27;20410;-67
2022/01/23 09:19:02;;;;;;;0.57;0.20;;;13.20;54.20;;;;;;5127763;28;20482;-68
2022/01/23 09:21:31;;;;;;;0.43;0.20;;;13.20;54.10;;;;;;5113893;28;20519;-67
2022/01/23 09:23:56;;;;;;;1.15;0.20;;;13.20;54.10;;;;;;5115243;28;20190;-68
2022/01/23 09:26:23;;;;;;;0.63;0.28;;;13.20;54.10;;;;;;5114267;28;20332;-68
2022/01/23 09:28:53;;;;;;;1.45;0.20;;;13.20;54.10;;;;;;5115038;28;20071;-68
2022/01/23 09:31:31;;;;;;;0.65;0.20;;;13.20;54.10;;;;;;5113885;28;20040;-67
2022/01/23 09:33:57;;;;;;;1.92;0.30;;;13.20;54.10;;;;;;5114990;28;20036;-67
2022/01/23 09:36:23;;;;;;;0.90;0.20;;;13.20;54.00;;;;;;5113983;28;20538;-67
2022/01/23 09:38:52;;;;;;;0.82;0.60;;;13.20;54.00;;;;;;5114937;27;20055;-68
2022/01/23 09:41:21;;;;;;;1.08;0.20;;;13.20;54.00;;;;;;5113647;28;20055;-67
2022/01/23 09:43:49;;;;;;;1.02;0.38;;;13.20;54.00;;;;;;5113654;28;20047;-67
2022/01/23 09:46:14;;;;;;;0.90;0.30;;;13.20;54.00;;;;;;5113583;28;20525;-67
2022/01/23 09:48:43;;;;;;;1.25;0.20;;;13.20;54.00;;;;;;5113725;28;20036;-67
2022/01/23 09:51:09;;;;;;;0.88;0.22;;;13.20;54.00;;;;;;5113472;28;20039;-72
2022/01/23 09:53:36;;;;;;;1.45;0.30;;;13.20;54.00;;;;;;5113176;28;20044;-67
2022/01/23 09:56:05;;;;;;;1.10;0.30;;;13.20;54.00;;;;;;5114237;28;20120;-67
2022/01/23 09:58:32;;;;;;;0.73;0.30;;;13.20;54.00;;;;;;5113158;28;20487;-67
2022/01/23 10:01:01;;;;;;;0.60;0.20;;;13.20;54.00;;;;;;5113569;28;20049;-67
2022/01/23 10:03:27;;;;;;;1.27;0.17;;;13.20;53.90;;;;;;5114571;28;20065;-68
2022/01/23 10:05:55;;;;;;;0.60;0.30;;;13.20;53.90;;;;;;5113194;28;20035;-68
2022/01/23 10:08:22;;;;;;;1.30;0.20;;;13.20;53.90;;;;;;5113961;28;20094;-67
2022/01/23 10:10:53;;;;;;;1.38;0.20;;;13.30;54.00;;;;;;5113288;28;20075;-68
2022/01/23 10:13:24;;;;;;;0.95;0.13;;;13.20;53.90;;;;;;5113275;28;20040;-67
2022/01/23 10:15:49;;;;;;;1.25;0.17;;;13.30;53.90;;;;;;5114184;28;20110;-67
2022/01/23 10:18:17;;;;;;;0.35;0.17;;;13.30;53.90;;;;;;5112942;28;20435;-68
2022/01/23 10:20:46;;;;;;;0.63;0.20;;;13.20;53.80;;;;;;5095947;28;20071;-67
2022/01/23 10:23:14;;;;;;;1.83;0.70;;;13.30;53.80;;;;;;5113143;28;20048;-67
2022/01/23 10:25:42;;;;;;;1.35;0.68;;;13.30;53.80;;;;;;5112936;28;20047;-68
2022/01/23 10:30:56;;;;;;;0.52;0.10;;;13.30;53.80;;;;;;5141076;27;20108;-67
2022/01/23 10:36:14;;;;;;;0.40;0.10;;;13.30;53.80;;;;;;5109643;27;20302;-68
2022/01/23 10:39:02;;;;;;;0.55;0.38;;;13.30;53.70;;;;;;5108545;28;20054;-68
2022/01/23 10:52:36;;;;;;;1.27;0.30;;;13.40;53.60;;;;;;5089382;28;20359;-67
2022/01/23 10:57:57;;;;;;;0.30;0.13;;;13.40;53.50;;;;;;5130292;27;20856;-67
2022/01/23 11:03:18;;;;;;;1.40;0.15;;;13.40;53.50;;;;;;5089328;27;20429;-67
2022/01/23 11:05:45;;;;;;;0.57;0.20;;;13.40;53.50;;;;;;5089309;28;20412;-68
2022/01/23 11:08:32;;;;;;;0.40;0.20;;;13.40;53.50;;;;;;5088079;28;20119;-68
2022/01/23 11:11:07;;;;;;;0.30;0.10;;;13.40;53.50;;;;;;5088286;28;20048;-68
2022/01/23 11:19:15;;;;;;;0.52;0.20;;;13.40;53.50;;;;;;5130914;27;20391;-68
2022/01/23 11:21:42;;;;;;;1.38;0.20;;;13.40;53.40;;;;;;5128874;28;20634;-67
2022/01/23 11:24:07;;;;;;;0.65;0.20;;;13.40;53.50;;;;;;5129220;28;20039;-68
2022/01/23 11:26:33;;;;;;;0.73;0.13;;;13.40;53.50;;;;;;5128835;28;20047;-68
2022/01/23 11:29:09;;;;;;;0.57;0.10;;;13.40;53.40;;;;;;5129182;28;20043;-67
2022/01/23 11:31:37;;;;;;;0.50;0.10;;;13.40;53.50;;;;;;5129255;28;20134;-67
2022/01/23 11:34:05;;;;;;;0.20;0.10;;;13.40;53.50;;;;;;5130194;27;20050;-67
2022/01/23 11:36:31;;;;;;;0.60;0.30;;;13.40;53.40;;;;;;5128706;28;20046;-68
2022/01/23 11:39:05;;;;;;;0.57;0.20;;;13.40;53.40;;;;;;5129932;28;20417;-68
2022/01/23 11:59:28;;;;;;;0.20;0.00;;;13.40;53.20;;;;;;5006905;27;4102188;-68
2022/01/23 12:19:58;;;;;;;0.20;0.10;;;13.40;53.20;;;;;;5130409;27;20354;-68
2022/01/23 12:25:10;;;;;;;0.17;0.10;;;13.40;53.10;;;;;;5152781;27;1167379;-68
2022/01/23 12:27:36;;;;;;;0.10;0.00;;;13.30;53.10;;;;;;5153161;27;20048;-68
2022/01/23 12:33:21;;;;;;;0.28;0.00;;;13.30;53.00;;;;;;5152044;27;1198882;-67
2022/01/23 12:35:52;;;;;;;0.60;0.00;;;13.30;53.00;;;;;;5152806;27;20679;-67
2022/01/23 12:38:25;;;;;;;0.25;0.10;;;13.30;53.00;;;;;;5153328;27;20474;-67
2022/01/23 12:40:51;;;;;;;0.50;0.05;;;13.30;53.00;;;;;;5171986;27;20042;-68
2022/01/23 12:46:04;;;;;;;1.13;0.10;;;13.30;53.00;;;;;;5130324;27;20362;-68
2022/01/23 12:48:39;;;;;;;0.13;0.10;;;13.30;53.00;;;;;;5128899;28;20478;-67
2022/01/23 12:56:41;;;;;;;0.20;0.00;;;13.30;53.00;;;;;;5152881;27;1165172;-67
2022/01/23 12:59:10;;;;;;;0.40;0.10;;;13.30;53.00;;;;;;5153022;27;20478;-67
2022/01/23 13:01:38;;;;;;;0.30;0.30;;;13.30;53.70;;;;;;5153193;27;20041;-67
2022/01/23 13:04:05;;;;;;;0.00;0.00;;;13.30;53.00;;;;;;5153419;27;20034;-67
2022/01/23 13:06:41;;;;;;;0.10;0.03;;;13.30;52.90;;;;;;5171834;27;20073;-67
2022/01/23 13:12:13;;;;;;;0.43;0.10;;;13.30;52.90;;;;;;5151575;27;1201812;-67
2022/01/23 13:14:54;;;;;;;0.95;0.10;;;13.30;52.90;;;;;;5153012;27;20282;-67
2022/01/23 13:29:41;;;;;;;0.10;0.00;;;13.30;52.90;;;;;;5152991;27;1150941;-67
2022/01/23 13:31:41;;;;;;;0.17;0.10;;;13.30;52.90;;;;;;5153134;27;20046;-67
2022/01/23 13:40:00;;;;;;;0.30;0.00;;;13.30;53.00;;;;;;5109772;27;20931;-67
2022/01/23 13:48:24;;;;;;;0.10;0.00;;;13.20;52.90;;;;;;5130241;27;20383;-67
2022/01/23 13:59:27;;;;;;;0.20;0.00;;;13.20;52.90;;;;;;5153307;27;20360;-68
2022/01/23 14:05:04;;;;;;;0.20;0.00;;;13.20;53.00;;;;;;5111463;27;1150865;-67
2022/01/23 14:07:31;;;;;;;0.20;0.00;;;13.20;53.00;;;;;;5112066;28;20100;-68
2022/01/23 14:09:59;;;;;;;0.10;0.05;;;13.20;53.00;;;;;;5110985;28;20051;-67
2022/01/23 14:12:26;;;;;;;0.20;0.10;;;13.20;53.00;;;;;;5111909;28;20122;-67
2022/01/23 14:17:36;;;;;;;0.45;0.30;;;13.20;53.00;;;;;;5130150;27;20435;-67
2022/01/23 14:20:20;;;;;;;0.05;0.00;;;13.20;53.00;;;;;;5129316;28;20512;-67
2022/01/23 14:22:47;;;;;;;0.35;0.10;;;13.20;53.00;;;;;;5128927;28;20074;-67
2022/01/23 14:28:09;;;;;;;0.47;0.10;;;13.20;53.00;;;;;;5130328;27;20563;-67
2022/01/23 14:30:43;;;;;;;0.63;0.03;;;13.20;53.10;;;;;;5128243;28;20513;-67
2022/01/23 14:33:12;;;;;;;0.20;0.10;;;13.20;53.10;;;;;;5128865;27;20079;-67
2022/01/23 14:35:38;;;;;;;0.30;0.10;;;13.10;53.00;;;;;;5128734;28;20039;-67
2022/01/23 14:38:14;;;;;;;0.30;0.03;;;13.20;53.10;;;;;;5129149;28;20039;-67
2022/01/23 14:40:52;;;;;;;0.22;0.10;;;13.20;53.10;;;;;;5128825;28;20076;-67
2022/01/23 14:43:18;;;;;;;0.10;0.10;;;13.20;53.20;;;;;;5128702;28;20073;-67
2022/01/23 14:45:46;;;;;;;0.10;0.05;;;13.10;53.10;;;;;;5129972;28;20040;-69
2022/01/23 14:48:14;;;;;;;0.30;0.15;;;13.10;53.20;;;;;;5129792;28;20040;-67
2022/01/23 14:50:45;;;;;;;0.13;0.10;;;13.10;53.10;;;;;;5128612;27;20114;-67
2022/01/23 14:53:17;;;;;;;0.50;0.10;;;13.10;53.20;;;;;;5128035;28;20448;-67
2022/01/23 14:55:49;;;;;;;0.45;0.13;;;13.10;53.20;;;;;;5128710;28;20121;-67
2022/01/23 14:58:19;;;;;;;1.08;0.10;;;13.10;53.20;;;;;;5129749;28;20390;-67
2022/01/23 15:00:46;;;;;;;0.30;0.10;;;13.10;53.20;;;;;;5128359;27;20039;-67
2022/01/23 15:03:12;;;;;;;0.40;0.10;;;13.10;53.20;;;;;;5129595;28;20043;-68
2022/01/23 15:05:39;;;;;;;0.50;0.00;;;13.10;53.30;;;;;;5129570;28;20062;-67
2022/01/23 15:08:08;;;;;;;0.35;0.10;;;13.10;54.00;;;;;;5129493;28;20058;-67
2022/01/23 15:10:36;;;;;;;0.40;0.10;;;13.10;53.30;;;;;;5128514;28;20043;-67
2022/01/23 15:13:02;;;;;;;0.77;0.20;;;13.10;53.30;;;;;;5129509;28;20035;-67
2022/01/23 15:15:28;;;;;;;0.40;0.10;;;13.10;53.30;;;;;;5129656;28;20045;-67
2022/01/23 15:17:57;;;;;;;0.55;0.10;;;13.10;53.40;;;;;;5129583;27;20492;-67
2022/01/23 15:20:22;;;;;;;0.60;0.10;;;13.10;53.40;;;;;;5127998;28;20054;-67
2022/01/23 15:22:48;;;;;;;0.25;0.10;;;13.00;53.40;;;;;;5128117;28;20028;-68
2022/01/23 15:25:15;;;;;;;0.40;0.10;;;13.10;53.40;;;;;;5128123;28;20039;-68
2022/01/23 15:27:41;;;;;;;0.50;0.10;;;13.10;53.40;;;;;;5128631;27;20063;-67
2022/01/23 15:30:11;;;;;;;0.63;0.22;;;13.10;53.40;;;;;;5129018;27;20384;-67
2022/01/23 15:32:37;;;;;;;0.20;0.10;;;13.10;53.50;;;;;;5127805;28;20046;-67
2022/01/23 15:35:04;;;;;;;0.30;0.10;;;13.00;53.40;;;;;;5128910;27;20032;-68
2022/01/23 15:37:30;;;;;;;0.05;0.00;;;13.00;53.40;;;;;;5124063;28;20390;-68
2022/01/23 15:39:56;;;;;;;0.98;0.10;;;13.00;53.50;;;;;;5115231;28;20051;-67
2022/01/23 15:42:21;;;;;;;0.40;0.20;;;13.00;53.50;;;;;;5113906;28;20129;-67
2022/01/23 15:44:47;;;;;;;0.20;0.10;;;13.00;53.50;;;;;;5113955;28;20042;-68
2022/01/23 15:47:13;;;;;;;0.47;0.10;;;13.00;53.50;;;;;;5115082;28;20698;-67
2022/01/23 15:49:39;;;;;;;0.95;0.10;;;13.00;53.50;;;;;;5113941;28;20074;-67
2022/01/23 15:52:05;;;;;;;0.30;0.10;;;13.00;53.50;;;;;;5115217;28;20459;-67
2022/01/23 15:54:31;;;;;;;0.30;0.10;;;13.00;53.50;;;;;;5114929;28;20498;-67
2022/01/23 15:56:57;;;;;;;0.30;0.10;;;13.00;53.50;;;;;;5115028;28;20075;-69
2022/01/23 15:59:23;;;;;;;0.40;0.17;;;13.00;53.50;;;;;;5113631;28;20536;-69
2022/01/23 16:01:49;;;;;;;0.20;0.10;;;13.00;53.50;;;;;;5114707;27;20088;-69
2022/01/23 16:04:17;;;;;;;0.30;0.10;;;13.00;53.50;;;;;;5113870;28;20108;-69
2022/01/23 16:06:43;;;;;;;0.93;0.10;;;13.00;53.50;;;;;;5114665;28;20047;-69
2022/01/23 16:09:08;;;;;;;1.20;0.10;;;13.00;53.60;;;;;;5113308;28;20371;-69
2022/01/23 16:11:34;;;;;;;0.25;0.10;;;13.00;53.50;;;;;;5114638;28;20027;-70
2022/01/23 16:14:00;;;;;;;0.30;0.10;;;13.00;53.50;;;;;;5114591;28;20576;-69
2022/01/23 16:16:26;;;;;;;0.57;0.10;;;13.00;53.50;;;;;;5113450;28;20130;-69
2022/01/23 16:18:52;;;;;;;0.65;0.10;;;13.00;53.60;;;;;;5114785;28;20390;-69
2022/01/23 16:21:19;;;;;;;0.70;0.13;;;13.00;53.60;;;;;;5114442;28;20032;-69
2022/01/23 16:23:45;;;;;;;0.47;0.10;;;13.00;54.30;;;;;;5114520;28;20027;-69
2022/01/23 16:26:12;;;;;;;0.30;0.15;;;13.00;53.60;;;;;;5112925;28;20051;-69
2022/01/23 16:28:37;;;;;;;0.50;0.20;;;13.00;53.60;;;;;;5114323;28;20035;-69
2022/01/23 16:31:03;;;;;;;0.90;0.13;;;13.00;53.60;;;;;;5114543;28;20032;-70
2022/01/23 16:33:30;;;;;;;0.20;0.10;;;13.00;53.60;;;;;;5114209;28;20047;-69
2022/01/23 16:35:57;;;;;;;0.10;0.10;;;13.00;53.60;;;;;;5114315;28;20074;-69
2022/01/23 16:38:26;;;;;;;0.17;0.10;;;12.90;53.60;;;;;;5112965;28;20698;-69
2022/01/23 16:40:55;;;;;;;0.73;0.20;;;13.00;53.60;;;;;;5114238;28;20035;-69
2022/01/23 16:43:23;;;;;;;0.80;0.28;;;12.90;53.60;;;;;;5113078;28;20047;-69
2022/01/23 16:45:51;;;;;;;0.20;0.10;;;12.90;53.60;;;;;;5114454;28;20118;-69
2022/01/23 16:48:17;;;;;;;0.43;0.10;;;12.90;54.40;;;;;;5112896;28;20107;-69
2022/01/23 16:50:43;;;;;;;0.70;0.10;;;12.90;53.70;;;;;;5112003;28;20437;-69
2022/01/23 16:53:09;;;;;;;0.25;0.10;;;12.90;53.70;;;;;;5113905;28;20058;-69
2022/01/23 16:55:37;;;;;;;0.32;0.10;;;12.90;53.70;;;;;;5113915;28;20387;-69
2022/01/23 16:58:04;;;;;;;0.35;0.10;;;12.90;53.90;;;;;;5112532;28;20054;-69
2022/01/23 17:00:33;;;;;;;0.47;0.10;;;12.90;53.70;;;;;;5112355;28;20071;-70
2022/01/23 17:02:59;;;;;;;0.30;0.15;;;12.90;53.70;;;;;;5113639;28;20124;-69
2022/01/23 17:05:26;;;;;;;0.30;0.20;;;12.90;53.70;;;;;;5113640;28;20168;-69
2022/01/23 17:07:52;;;;;;;0.77;0.20;;;12.90;53.70;;;;;;5112619;28;20051;-69
2022/01/23 17:10:18;;;;;;;0.32;0.10;;;12.90;53.70;;;;;;5112507;28;20032;-69
2022/01/23 17:12:43;;;;;;;0.30;0.10;;;12.90;53.70;;;;;;5113711;28;20046;-69